createdAt,value
2023-07-14T00:04:10.238Z,2.67
2023-07-14T00:08:30.394Z,3.10
2023-07-14T00:12:47.268Z,3.42
2023-07-14T00:17:05.771Z,3.25
2023-07-14T00:21:24.990Z,3.45
2023-07-14T00:25:41.820Z,3.28
2023-07-14T00:29:58.646Z,3.00
2023-07-14T00:34:14.825Z,3.72
2023-07-14T00:38:31.234Z,3.40
2023-07-14T00:42:54.762Z,3.08
2023-07-14T00:47:27.706Z,3.37
2023-07-14T00:51:44.623Z,2.90
2023-07-14T00:56:13.863Z,3.15
2023-07-14T01:00:32.136Z,3.15
2023-07-14T01:04:52.834Z,3.25
2023-07-14T01:09:12.879Z,3.70
2023-07-14T01:13:30.922Z,3.60
2023-07-14T01:17:48.820Z,3.30
2023-07-14T01:22:23.324Z,3.35
2023-07-14T01:26:59.282Z,3.45
2023-07-14T01:31:22.598Z,3.50
2023-07-14T01:35:43.063Z,3.60
2023-07-14T01:39:59.690Z,3.35
2023-07-14T01:44:19.148Z,3.10
2023-07-14T01:49:01.016Z,3.65
2023-07-14T01:53:24.841Z,3.90
2023-07-14T01:57:41.929Z,3.47
2023-07-14T02:02:03.320Z,3.70
2023-07-14T02:06:19.615Z,3.65
2023-07-14T02:10:35.910Z,4.00
2023-07-14T02:15:07.796Z,3.87
2023-07-14T02:19:26.063Z,3.90
2023-07-14T02:23:43.251Z,3.97
2023-07-14T02:27:59.543Z,3.90
2023-07-14T02:32:21.735Z,3.83
2023-07-14T02:37:00.749Z,3.60
2023-07-14T02:41:27.320Z,3.78
2023-07-14T02:45:59.739Z,3.87
2023-07-14T02:50:15.985Z,3.43
2023-07-14T02:54:32.163Z,3.87
2023-07-14T02:58:51.407Z,3.80
2023-07-14T03:03:07.902Z,3.78
2023-07-14T03:07:24.230Z,3.67
2023-07-14T03:11:40.429Z,3.67
2023-07-14T03:15:56.693Z,3.85
2023-07-14T03:20:15.439Z,3.95
2023-07-14T03:24:31.740Z,3.87
2023-07-14T03:28:47.985Z,4.50
2023-07-14T03:33:04.273Z,4.68
2023-07-14T03:37:20.648Z,4.53
2023-07-14T03:41:36.869Z,4.03
2023-07-14T03:45:53.159Z,4.15
2023-07-14T03:50:12.860Z,4.25
2023-07-14T03:54:29.096Z,4.32
2023-07-14T03:58:45.357Z,4.28
2023-07-14T04:03:01.918Z,4.60
2023-07-14T04:07:18.252Z,4.32
2023-07-14T04:11:35.862Z,4.57
2023-07-14T04:15:52.071Z,4.25
2023-07-14T04:20:08.752Z,4.90
2023-07-14T04:24:24.949Z,4.70
2023-07-14T04:28:41.090Z,4.40
2023-07-14T04:32:59.386Z,4.68
2023-07-14T04:37:15.590Z,4.30
2023-07-14T04:41:32.406Z,4.85
2023-07-14T04:45:50.841Z,3.70
2023-07-14T04:50:08.510Z,4.30
2023-07-14T04:54:25.400Z,4.10
2023-07-14T04:58:41.714Z,3.72
2023-07-14T05:02:58.317Z,3.58
2023-07-14T05:07:14.783Z,3.97
2023-07-14T05:11:31.026Z,3.55
2023-07-14T05:15:48.439Z,4.05
2023-07-14T05:20:07.433Z,4.22
2023-07-14T05:24:23.844Z,4.30
2023-07-14T05:28:40.333Z,3.97
2023-07-14T05:32:56.587Z,3.90
2023-07-14T05:37:12.929Z,3.83
2023-07-14T05:41:29.091Z,4.20
2023-07-14T05:45:48.426Z,4.18
2023-07-14T05:50:06.740Z,4.03
2023-07-14T05:54:23.211Z,4.22
2023-07-14T05:58:39.799Z,4.37
2023-07-14T06:02:56.136Z,4.30
2023-07-14T06:07:13.043Z,3.47
2023-07-14T06:11:29.268Z,3.70
2023-07-14T06:15:51.583Z,3.78
2023-07-14T06:20:08.604Z,4.57
2023-07-14T06:24:25.511Z,4.25
2023-07-14T06:28:42.487Z,4.55
2023-07-14T06:32:59.051Z,4.53
2023-07-14T06:37:15.244Z,4.32
2023-07-14T06:41:31.555Z,4.55
2023-07-14T06:45:51.183Z,4.47
2023-07-14T06:50:07.772Z,3.87
2023-07-14T06:54:23.997Z,4.35
2023-07-14T06:58:40.188Z,4.25
2023-07-14T07:02:56.381Z,3.67
2023-07-14T07:07:12.523Z,4.40
2023-07-14T07:11:28.703Z,3.62
2023-07-14T07:15:46.842Z,3.15
2023-07-14T07:20:04.646Z,3.05
2023-07-14T07:24:20.863Z,2.92
2023-07-14T07:28:37.323Z,3.05
2023-07-14T07:32:53.651Z,2.80
2023-07-14T07:37:10.238Z,2.28
2023-07-14T07:41:27.726Z,2.60
2023-07-14T07:45:49.931Z,2.70
2023-07-14T07:50:06.830Z,2.75
2023-07-14T07:54:23.044Z,2.55
2023-07-14T07:58:39.177Z,3.17
2023-07-14T08:02:55.561Z,2.40
2023-07-14T08:07:14.676Z,2.50
2023-07-14T08:11:31.640Z,2.45
2023-07-14T08:15:49.027Z,2.33
2023-07-14T08:20:09.172Z,2.53
2023-07-14T08:24:25.422Z,2.20
2023-07-14T08:28:42.844Z,2.20
2023-07-14T08:32:59.637Z,2.50
2023-07-14T08:37:15.955Z,2.20
2023-07-14T08:41:35.320Z,1.95
2023-07-14T08:46:15.941Z,2.33
2023-07-14T08:50:33.704Z,2.28
2023-07-14T08:55:11.907Z,2.40
2023-07-14T08:59:33.940Z,2.40
2023-07-14T09:03:55.279Z,2.72
2023-07-14T09:08:12.561Z,2.28
2023-07-14T09:12:55.219Z,2.17
2023-07-14T09:17:44.937Z,2.10
2023-07-14T09:22:01.119Z,2.50
2023-07-14T09:26:36.337Z,2.40
2023-07-14T09:30:54.231Z,2.60
2023-07-14T09:35:21.517Z,2.55
2023-07-14T09:39:43.491Z,2.42
2023-07-14T09:44:02.625Z,2.45
2023-07-14T09:48:31.534Z,2.00
2023-07-14T09:52:57.012Z,2.22
2023-07-14T09:57:25.069Z,2.22
2023-07-14T10:02:01.248Z,2.30
2023-07-14T10:06:26.856Z,2.08
2023-07-14T10:10:44.561Z,2.10
2023-07-14T10:15:01.998Z,2.37
2023-07-14T10:19:20.564Z,2.33
2023-07-14T10:23:37.041Z,2.40
2023-07-14T10:28:11.655Z,2.45
2023-07-14T10:32:53.359Z,2.20
2023-07-14T10:37:40.600Z,2.40
2023-07-14T10:41:58.356Z,2.30
2023-07-14T10:46:22.526Z,1.98
2023-07-14T10:50:54.296Z,2.75
2023-07-14T10:55:32.640Z,2.67
2023-07-14T10:59:55.895Z,2.20
2023-07-14T11:04:35.712Z,2.08
2023-07-14T11:08:57.365Z,2.12
2023-07-14T11:13:31.506Z,1.92
2023-07-14T11:18:19.643Z,2.10
2023-07-14T11:22:48.476Z,2.10
2023-07-14T11:27:29.934Z,2.00
2023-07-14T11:31:53.923Z,1.83
2023-07-14T11:36:20.873Z,1.90
2023-07-14T11:40:41.756Z,1.98
2023-07-14T11:45:01.483Z,2.17
2023-07-14T11:49:38.505Z,1.90
2023-07-14T11:54:14.392Z,1.80
2023-07-14T11:58:32.243Z,2.15
2023-07-14T12:02:53.169Z,1.90
2023-07-14T12:07:24.054Z,1.67
2023-07-14T12:11:42.750Z,2.05
2023-07-14T12:16:02.651Z,1.90
2023-07-14T12:20:47.908Z,2.10
2023-07-14T12:25:21.072Z,2.00
2023-07-14T12:29:52.129Z,2.30
2023-07-14T12:34:33.418Z,1.98
2023-07-14T12:38:53.157Z,1.75
2023-07-14T12:43:29.300Z,2.03
2023-07-14T12:47:50.089Z,1.70
2023-07-14T12:52:15.204Z,1.80
2023-07-14T12:56:34.635Z,1.90
2023-07-14T13:00:58.628Z,1.95
2023-07-14T13:05:18.582Z,1.70
2023-07-14T13:09:35.581Z,1.87
2023-07-14T13:13:57.268Z,1.75
2023-07-14T13:18:33.447Z,1.70
2023-07-14T13:23:12.605Z,1.80
2023-07-14T13:27:28.880Z,1.87
2023-07-14T13:31:46.581Z,1.65
2023-07-14T13:36:08.963Z,1.98
2023-07-14T13:40:28.056Z,1.90
2023-07-14T13:44:51.423Z,1.90
2023-07-14T13:49:09.272Z,1.77
2023-07-14T13:53:25.941Z,1.73
2023-07-14T13:57:45.009Z,1.90
2023-07-14T14:02:25.644Z,1.80
2023-07-14T14:06:43.173Z,2.00
2023-07-14T14:10:59.493Z,1.85
2023-07-14T14:15:20.715Z,2.22
2023-07-14T14:19:37.103Z,1.70
2023-07-14T14:23:53.453Z,1.85
2023-07-14T14:28:10.310Z,2.00
2023-07-14T14:32:26.693Z,1.70
2023-07-14T14:36:43.024Z,2.10
2023-07-14T14:41:01.597Z,2.03
2023-07-14T14:45:23.848Z,1.83
2023-07-14T14:49:40.253Z,1.90
2023-07-14T14:53:56.715Z,1.95
2023-07-14T14:58:27.216Z,1.80
2023-07-14T15:02:43.528Z,2.00
2023-07-14T15:06:59.957Z,2.30
2023-07-14T15:11:19.199Z,1.62
2023-07-14T15:15:37.665Z,1.77
2023-07-14T15:19:54.336Z,1.67
2023-07-14T15:24:13.468Z,1.75
2023-07-14T15:28:29.842Z,1.80
2023-07-14T15:32:46.094Z,1.90
2023-07-14T15:37:02.511Z,1.92
2023-07-14T15:41:22.556Z,2.35
2023-07-14T15:45:38.751Z,2.22
2023-07-14T15:49:55.252Z,2.12
2023-07-14T15:54:27.485Z,2.03
2023-07-14T15:58:43.831Z,1.80
2023-07-14T16:03:00.993Z,1.87
2023-07-14T16:07:18.701Z,2.10
2023-07-14T16:11:36.662Z,2.20
2023-07-14T16:15:54.241Z,2.47
2023-07-14T16:20:19.041Z,2.37
2023-07-14T16:24:38.931Z,2.42
2023-07-14T16:28:56.456Z,2.50
2023-07-14T16:33:14.242Z,2.10
2023-07-14T16:37:31.992Z,2.37
2023-07-14T16:41:48.634Z,2.12
2023-07-14T16:46:05.327Z,2.67
2023-07-14T16:50:23.554Z,2.33
2023-07-14T16:54:39.898Z,2.45
2023-07-14T16:58:56.387Z,1.87
2023-07-14T17:03:29.707Z,2.10
2023-07-14T17:07:46.522Z,2.03
2023-07-14T17:12:03.256Z,2.65
2023-07-14T17:16:20.128Z,6.97
2023-07-14T17:20:36.653Z,3.87
2023-07-14T17:24:53.896Z,2.55
2023-07-14T17:29:18.221Z,2.20
2023-07-14T17:33:35.515Z,2.45
2023-07-14T17:37:56.449Z,2.30
2023-07-14T17:42:19.146Z,2.28
2023-07-14T17:46:35.495Z,2.30
2023-07-14T17:50:54.083Z,2.12
2023-07-14T17:55:19.536Z,2.90
2023-07-14T17:59:36.091Z,3.00
2023-07-14T18:03:52.525Z,2.70
2023-07-14T18:08:11.561Z,2.90
2023-07-14T18:12:29.820Z,2.70
2023-07-14T18:16:46.436Z,2.40
2023-07-14T18:21:03.650Z,2.70
2023-07-14T18:25:25.209Z,2.53
2023-07-14T18:29:42.150Z,2.60
2023-07-14T18:33:58.332Z,2.55
2023-07-14T18:38:17.420Z,2.50
2023-07-14T18:42:33.571Z,2.60
2023-07-14T18:46:50.306Z,2.60
2023-07-14T18:51:22.598Z,2.40
2023-07-14T18:55:42.814Z,2.62
2023-07-14T18:59:59.034Z,2.83
2023-07-14T19:04:20.362Z,3.17
2023-07-14T19:08:36.615Z,2.83
2023-07-14T19:12:52.888Z,2.40
2023-07-14T19:17:15.349Z,2.85
2023-07-14T19:25:49.328Z,2.53
2023-07-14T19:30:13.534Z,2.60
2023-07-14T19:34:37.937Z,2.55
2023-07-14T19:38:54.226Z,2.65
2023-07-14T19:43:18.924Z,2.87
2023-07-14T19:47:35.196Z,2.85
2023-07-14T19:51:56.617Z,2.90
2023-07-14T19:56:13.047Z,3.00
2023-07-14T20:00:32.364Z,2.90
2023-07-14T20:04:48.502Z,2.60
2023-07-14T20:09:07.705Z,3.00
2023-07-14T20:13:26.647Z,2.83
2023-07-14T20:17:42.970Z,3.25
2023-07-14T20:22:01.026Z,2.80
2023-07-14T20:26:20.163Z,2.80
2023-07-14T20:30:36.553Z,2.70
2023-07-14T20:35:00.843Z,3.00
2023-07-14T20:39:21.716Z,3.05
2023-07-14T20:43:39.229Z,3.00
2023-07-14T20:47:56.808Z,3.47
2023-07-14T20:52:24.184Z,2.90
2023-07-14T20:56:40.850Z,3.30
2023-07-14T21:00:58.394Z,2.87
2023-07-14T21:05:14.938Z,2.97
2023-07-14T21:09:31.156Z,3.10
2023-07-14T21:13:53.057Z,3.30
2023-07-14T21:18:13.714Z,3.33
2023-07-14T21:22:30.536Z,3.08
2023-07-14T21:26:47.053Z,3.55
2023-07-14T21:31:06.518Z,3.58
2023-07-14T21:35:23.055Z,3.33
2023-07-14T21:39:39.531Z,2.85
2023-07-14T21:43:56.686Z,2.90
2023-07-14T21:48:23.775Z,2.92
2023-07-14T21:52:40.049Z,2.87
2023-07-14T21:56:56.308Z,3.10
2023-07-14T22:01:34.489Z,2.70
2023-07-14T22:05:55.321Z,3.00
2023-07-14T22:10:18.161Z,2.87
2023-07-14T22:18:51.167Z,3.78
2023-07-14T22:23:09.302Z,3.15
2023-07-14T22:27:25.730Z,2.40
2023-07-14T22:31:42.263Z,3.20
2023-07-14T22:35:59.978Z,3.30
2023-07-14T22:40:17.589Z,3.40
2023-07-14T22:44:33.862Z,3.55
2023-07-14T22:48:50.362Z,3.20
2023-07-14T22:53:07.059Z,2.67
2023-07-14T22:57:23.353Z,2.67
2023-07-14T23:01:39.793Z,3.00
2023-07-14T23:06:00.877Z,2.95
2023-07-14T23:10:17.207Z,2.92
2023-07-14T23:14:33.632Z,3.33
2023-07-14T23:18:49.902Z,3.05
2023-07-14T23:23:10.890Z,3.17
2023-07-14T23:27:27.231Z,3.08
2023-07-14T23:31:45.942Z,3.20
2023-07-14T23:36:02.180Z,3.33
2023-07-14T23:40:19.873Z,3.55
2023-07-14T23:44:36.110Z,3.20
2023-07-14T23:48:55.401Z,3.17
2023-07-14T23:53:35.808Z,3.45
2023-07-14T23:57:53.421Z,3.30
